createdAt,value
2023-05-09T01:20:11.327Z,101270.00
2023-05-09T01:22:40.798Z,101261.25
2023-05-09T01:25:35.840Z,101268.97
2023-05-09T01:28:03.700Z,101264.69
2023-05-09T01:30:31.773Z,101270.81
2023-05-09T01:33:01.214Z,101270.00
2023-05-09T01:35:30.611Z,101267.47
2023-05-09T01:37:58.979Z,101269.16
2023-05-09T01:40:28.452Z,101264.78
2023-05-09T01:43:00.450Z,101264.69
2023-05-09T01:45:27.694Z,101267.41
2023-05-09T01:47:56.596Z,101267.38
2023-05-09T01:50:24.872Z,101271.44
2023-05-09T01:52:55.524Z,101264.41
2023-05-09T01:55:25.881Z,101272.09
2023-05-09T01:57:54.010Z,101266.78
2023-05-09T02:00:22.528Z,101264.03
2023-05-09T02:02:50.298Z,101266.56
2023-05-09T02:05:18.226Z,101262.16
2023-05-09T02:07:47.431Z,101264.75
2023-05-09T02:10:16.195Z,101268.97
2023-05-09T02:12:43.827Z,101261.34
2023-05-09T02:15:11.533Z,101260.78
2023-05-09T02:17:42.553Z,101273.06
2023-05-09T02:20:10.518Z,101273.19
2023-05-09T02:22:38.141Z,101270.63
2023-05-09T02:25:07.615Z,101267.38
2023-05-09T02:27:35.249Z,101269.94
2023-05-09T02:30:07.680Z,101265.66
2023-05-09T02:32:35.708Z,101270.81
2023-05-09T02:35:04.395Z,101268.97
2023-05-09T02:37:31.709Z,101268.00
2023-05-09T02:39:59.047Z,101268.00
2023-05-09T02:42:30.287Z,101276.59
2023-05-09T02:44:57.561Z,101274.84
2023-05-09T02:47:25.897Z,101273.06
2023-05-09T02:49:53.295Z,101268.00
2023-05-09T02:52:21.675Z,101270.63
2023-05-09T02:54:48.969Z,101267.19
2023-05-09T02:57:16.193Z,101271.44
2023-05-09T02:59:43.446Z,101274.06
2023-05-09T03:02:10.730Z,101269.94
2023-05-09T03:04:38.011Z,101276.94
2023-05-09T03:07:05.605Z,101277.06
2023-05-09T03:09:33.989Z,101277.06
2023-05-09T03:12:01.720Z,101279.78
2023-05-09T03:14:29.138Z,101279.94
2023-05-09T03:16:56.715Z,101276.72
2023-05-09T03:19:29.648Z,101276.69
2023-05-09T03:21:57.026Z,101275.84
2023-05-09T03:24:27.133Z,101283.13
2023-05-09T03:26:54.959Z,101280.69
2023-05-09T03:29:22.532Z,101279.00
2023-05-09T03:31:49.840Z,101278.81
2023-05-09T03:34:17.155Z,101276.78
2023-05-09T03:36:45.263Z,101286.50
2023-05-09T03:39:15.278Z,101286.75
2023-05-09T03:41:47.558Z,101289.38
2023-05-09T03:44:15.219Z,101278.00
2023-05-09T03:46:42.617Z,101272.56
2023-05-09T03:49:10.283Z,101275.69
2023-05-09T03:51:39.293Z,101275.38
2023-05-09T03:54:12.598Z,101280.16
2023-05-09T03:56:40.769Z,101279.72
2023-05-09T03:59:08.308Z,101284.34
2023-05-09T04:01:36.508Z,101285.47
2023-05-09T04:04:05.137Z,101283.13
2023-05-09T04:06:34.896Z,101286.78
2023-05-09T04:09:03.103Z,101286.06
2023-05-09T04:11:30.810Z,101286.16
2023-05-09T04:13:59.821Z,101294.06
2023-05-09T04:16:33.777Z,101289.88
2023-05-09T04:19:01.040Z,101290.03
2023-05-09T04:21:28.243Z,101288.34
2023-05-09T04:23:58.900Z,101285.72
2023-05-09T04:26:46.378Z,101292.69
2023-05-09T04:29:17.069Z,101296.19
2023-05-09T04:31:49.757Z,101289.22
2023-05-09T04:34:17.790Z,101285.69
2023-05-09T04:36:45.019Z,101282.22
2023-05-09T04:39:13.146Z,101285.69
2023-05-09T04:41:48.071Z,101286.53
2023-05-09T04:44:17.460Z,101290.75
2023-05-09T04:46:45.565Z,101268.97
2023-05-09T04:49:12.697Z,101277.88
2023-05-09T04:51:39.750Z,101277.84
2023-05-09T04:54:06.999Z,101290.00
2023-05-09T04:56:37.473Z,101287.34
2023-05-09T04:59:04.883Z,101287.25
2023-05-09T05:01:31.947Z,101292.47
2023-05-09T05:04:00.169Z,101290.72
2023-05-09T05:06:27.289Z,101289.88
2023-05-09T05:08:54.786Z,101292.56
2023-05-09T05:11:22.330Z,101285.66
2023-05-09T05:13:50.067Z,101284.84
2023-05-09T05:16:17.304Z,101290.97
2023-05-09T05:18:45.468Z,101284.00
2023-05-09T05:21:13.087Z,101287.44
2023-05-09T05:23:40.822Z,101288.31
2023-05-09T05:26:08.215Z,101287.44
2023-05-09T05:28:36.553Z,101279.56
2023-05-09T05:31:04.627Z,101279.56
2023-05-09T05:33:32.929Z,101275.19
2023-05-09T05:36:00.605Z,101281.28
2023-05-09T05:38:28.496Z,101287.34
2023-05-09T05:40:57.396Z,101282.13
2023-05-09T05:43:26.036Z,101275.97
2023-05-09T05:45:55.513Z,101281.13
2023-05-09T05:48:24.299Z,101276.72
2023-05-09T05:50:53.493Z,101278.41
2023-05-09T05:53:24.581Z,101273.97
2023-05-09T05:55:52.254Z,101271.34
2023-05-09T05:58:19.826Z,101272.09
2023-05-09T06:00:47.709Z,101274.66
2023-05-09T06:03:16.278Z,101274.66
2023-05-09T06:05:56.313Z,101273.66
2023-05-09T06:08:24.112Z,101272.66
2023-05-09T06:10:51.880Z,101272.47
2023-05-09T06:13:19.486Z,101268.06
2023-05-09T06:15:51.680Z,101268.91
2023-05-09T06:18:18.751Z,101271.44
2023-05-09T06:20:45.864Z,101253.84
2023-05-09T06:23:12.945Z,101265.97
2023-05-09T06:25:40.115Z,101261.41
2023-05-09T06:28:07.501Z,101257.78
2023-05-09T06:30:34.574Z,101253.34
2023-05-09T06:33:02.029Z,101251.38
2023-05-09T06:35:29.337Z,101246.88
2023-05-09T06:37:56.900Z,101245.84
2023-05-09T06:40:24.137Z,101250.09
2023-05-09T06:42:51.198Z,101246.53
2023-05-09T06:45:18.816Z,101248.06
2023-05-09T06:47:46.767Z,101251.44
2023-05-09T06:50:14.315Z,101248.75
2023-05-09T06:52:41.557Z,101244.13
2023-05-09T06:55:09.505Z,101246.66
2023-05-09T06:57:36.754Z,101248.16
2023-05-09T07:00:05.315Z,101245.47
2023-05-09T07:02:32.453Z,101239.31
2023-05-09T07:04:59.577Z,101234.00
2023-05-09T07:07:26.732Z,101232.91
2023-05-09T07:10:00.669Z,101228.31
2023-05-09T07:12:34.759Z,101237.00
2023-05-09T07:15:01.963Z,101230.91
2023-05-09T07:17:30.236Z,101233.41
2023-05-09T07:19:57.564Z,101234.25
2023-05-09T07:22:24.715Z,101228.25
2023-05-09T07:24:51.974Z,101222.50
2023-05-09T07:27:19.093Z,101222.63
2023-05-09T07:29:46.204Z,101223.47
2023-05-09T07:32:13.310Z,101224.31
2023-05-09T07:34:40.497Z,101217.78
2023-05-09T07:37:07.548Z,101205.34
2023-05-09T07:39:34.663Z,101219.09
2023-05-09T07:42:01.696Z,101213.03
2023-05-09T07:44:28.852Z,101207.00
2023-05-09T07:46:55.952Z,101205.22
2023-05-09T07:49:23.030Z,101213.84
2023-05-09T07:51:50.196Z,101209.50
2023-05-09T07:54:17.364Z,101199.72
2023-05-09T07:56:44.490Z,101201.16
2023-05-09T07:59:12.533Z,101202.59
2023-05-09T08:01:39.727Z,101199.19
2023-05-09T08:04:09.350Z,101188.06
2023-05-09T08:06:36.986Z,101192.47
2023-05-09T08:09:05.021Z,101190.06
2023-05-09T08:11:36.203Z,101183.78
2023-05-09T08:14:03.450Z,101188.69
2023-05-09T08:16:30.825Z,101195.50
2023-05-09T08:18:58.342Z,101181.38
2023-05-09T08:21:25.588Z,101173.34
2023-05-09T08:23:53.453Z,101175.84
2023-05-09T08:26:22.297Z,101179.31
2023-05-09T08:28:49.944Z,101168.53
2023-05-09T08:31:17.095Z,101168.59
2023-05-09T08:33:44.191Z,101173.97
2023-05-09T08:36:11.340Z,101168.13
2023-05-09T08:38:40.812Z,101169.91
2023-05-09T08:41:07.968Z,101165.66
2023-05-09T08:43:35.498Z,101161.19
2023-05-09T08:46:12.100Z,101158.78
2023-05-09T08:48:39.467Z,101154.56
2023-05-09T08:51:06.904Z,101149.16
2023-05-09T08:53:34.686Z,101145.78
2023-05-09T08:56:03.888Z,101144.22
2023-05-09T08:58:32.046Z,101146.91
2023-05-09T09:00:59.538Z,101138.97
2023-05-09T09:03:26.864Z,101134.03
2023-05-09T09:05:55.041Z,101149.13
2023-05-09T09:08:22.663Z,101130.66
2023-05-09T09:10:50.027Z,101140.75
2023-05-09T09:13:17.874Z,101144.44
2023-05-09T09:15:46.655Z,101142.03
2023-05-09T09:18:19.977Z,101132.53
2023-05-09T09:20:50.647Z,101123.41
2023-05-09T09:23:20.669Z,101124.81
2023-05-09T09:25:48.381Z,101130.69
2023-05-09T09:28:15.905Z,101129.03
2023-05-09T09:30:48.063Z,101116.56
2023-05-09T09:33:26.138Z,101125.13
2023-05-09T09:35:55.117Z,101125.19
2023-05-09T09:38:23.496Z,101119.00
2023-05-09T09:40:50.639Z,101123.50
2023-05-09T09:43:17.849Z,101113.66
2023-05-09T09:45:49.573Z,101108.19
2023-05-09T09:48:17.058Z,101111.69
2023-05-09T09:50:44.134Z,101109.25
2023-05-09T09:53:11.282Z,101110.13
2023-05-09T09:55:52.294Z,101103.94
2023-05-09T09:58:25.267Z,101103.03
2023-05-09T10:01:16.983Z,101105.56
2023-05-09T10:03:46.058Z,101101.38
2023-05-09T10:06:14.906Z,101103.38
2023-05-09T10:08:42.738Z,101085.78
2023-05-09T10:11:11.094Z,101090.00
2023-05-09T10:13:38.944Z,101092.38
2023-05-09T10:16:06.722Z,101095.75
2023-05-09T10:18:35.091Z,101093.38
2023-05-09T10:21:04.206Z,101105.88
2023-05-09T10:23:32.805Z,101097.19
2023-05-09T10:26:21.305Z,101090.09
2023-05-09T10:28:50.055Z,101076.25
2023-05-09T10:31:27.634Z,101071.19
2023-05-09T10:33:58.952Z,101067.69
2023-05-09T10:36:26.294Z,101059.31
2023-05-09T10:38:55.235Z,101060.81
2023-05-09T10:41:23.959Z,101053.91
2023-05-09T10:43:51.619Z,101045.28
2023-05-09T10:46:19.103Z,101054.00
2023-05-09T10:48:47.581Z,101052.13
2023-05-09T10:51:14.611Z,101050.22
2023-05-09T10:53:49.862Z,101041.28
2023-05-09T10:56:33.872Z,101043.88
2023-05-09T10:59:01.473Z,101040.47
2023-05-09T11:01:35.024Z,101017.78
2023-05-09T11:04:08.907Z,101018.69
2023-05-09T11:06:42.275Z,101026.25
2023-05-09T11:09:28.569Z,101018.41
2023-05-09T11:12:10.199Z,101013.09
2023-05-09T11:14:50.131Z,100998.97
2023-05-09T11:17:23.462Z,101014.16
2023-05-09T11:19:50.543Z,101010.81
2023-05-09T11:22:21.193Z,101010.72
2023-05-09T11:24:54.188Z,101000.19
2023-05-09T11:27:25.209Z,101002.88
2023-05-09T11:29:53.963Z,100994.91
2023-05-09T11:32:22.526Z,100999.69
2023-05-09T11:34:49.829Z,100990.09
2023-05-09T11:37:18.132Z,100992.78
2023-05-09T11:40:00.033Z,100978.13
2023-05-09T11:42:30.996Z,100964.00
2023-05-09T11:44:59.085Z,100970.38
2023-05-09T11:47:26.658Z,100957.25
2023-05-09T11:49:53.759Z,100969.38
2023-05-09T11:52:22.021Z,100960.16
2023-05-09T11:54:49.845Z,100962.81
2023-05-09T11:57:20.093Z,100961.38
2023-05-09T11:59:48.833Z,100942.19
2023-05-09T12:02:16.035Z,100943.59
2023-05-09T12:04:44.367Z,100951.41
2023-05-09T12:07:14.643Z,100951.53
2023-05-09T12:09:43.819Z,100937.00
2023-05-09T12:12:12.232Z,100938.00
2023-05-09T12:14:39.958Z,100926.41
2023-05-09T12:17:10.377Z,100920.91
2023-05-09T12:19:37.523Z,100925.13
2023-05-09T12:22:07.067Z,100926.00
2023-05-09T12:24:37.106Z,100922.09
2023-05-09T12:27:05.187Z,100929.03
2023-05-09T12:29:32.266Z,100927.56
2023-05-09T12:31:59.707Z,100910.97
2023-05-09T12:34:26.885Z,100904.03
2023-05-09T12:36:54.035Z,100911.34
2023-05-09T12:39:23.285Z,100908.81
2023-05-09T12:42:00.976Z,100905.25
2023-05-09T12:44:30.178Z,100904.94
2023-05-09T12:47:02.951Z,100882.81
2023-05-09T12:49:31.065Z,100884.13
2023-05-09T12:52:01.653Z,100887.50
2023-05-09T12:54:30.418Z,100884.00
2023-05-09T12:56:58.867Z,100873.19
2023-05-09T12:59:28.469Z,100874.97
2023-05-09T13:01:59.815Z,100873.41
2023-05-09T13:04:28.663Z,100864.50
2023-05-09T13:06:57.900Z,100853.00
2023-05-09T13:09:26.322Z,100858.28
2023-05-09T13:11:53.642Z,100852.53
2023-05-09T13:14:22.757Z,100853.69
2023-05-09T13:16:49.849Z,100845.72
2023-05-09T13:19:17.142Z,100851.28
2023-05-09T13:21:44.320Z,100839.84
2023-05-09T13:24:11.368Z,100841.38
2023-05-09T13:26:38.480Z,100819.38
2023-05-09T13:29:05.721Z,100834.66
2023-05-09T13:31:32.943Z,100834.59
2023-05-09T13:34:00.028Z,100832.09
2023-05-09T13:36:27.180Z,100834.75
2023-05-09T13:38:54.388Z,100823.28
2023-05-09T13:41:23.795Z,100825.44
2023-05-09T13:43:51.565Z,100825.44
2023-05-09T13:46:18.789Z,100820.63
2023-05-09T13:48:47.387Z,100807.53
2023-05-09T13:51:14.542Z,100806.53
2023-05-09T13:53:41.581Z,100807.59
2023-05-09T13:56:09.877Z,100801.28
2023-05-09T13:58:37.128Z,100792.88
2023-05-09T14:01:04.356Z,100798.06
2023-05-09T14:03:32.064Z,100790.28
2023-05-09T14:05:59.905Z,100785.94
2023-05-09T14:08:27.157Z,100786.19
2023-05-09T14:10:54.875Z,100776.63
2023-05-09T14:13:22.237Z,100767.19
2023-05-09T14:15:49.646Z,100773.53
2023-05-09T14:18:20.093Z,100763.94
2023-05-09T14:20:48.244Z,100771.72
2023-05-09T14:23:15.270Z,100759.47
2023-05-09T14:25:43.535Z,100767.97
2023-05-09T14:28:10.588Z,100756.25
2023-05-09T14:30:37.781Z,100760.31
2023-05-09T14:33:04.828Z,100756.91
2023-05-09T14:35:34.377Z,100750.13
2023-05-09T14:38:01.840Z,100751.50
2023-05-09T14:40:34.877Z,100756.03
2023-05-09T14:43:02.914Z,100755.19
2023-05-09T14:45:31.571Z,100739.56
2023-05-09T14:47:59.327Z,100754.44
2023-05-09T14:50:26.443Z,100745.63
2023-05-09T14:52:53.654Z,100750.84
2023-05-09T14:55:23.245Z,100727.34
2023-05-09T14:57:50.365Z,100729.47
2023-05-09T15:00:21.785Z,100718.28
2023-05-09T15:02:50.591Z,100733.00
2023-05-09T15:05:18.169Z,100731.72
2023-05-09T15:07:45.275Z,100729.00
2023-05-09T15:10:13.240Z,100721.94
2023-05-09T15:12:40.547Z,100730.75
2023-05-09T15:15:19.975Z,100719.31
2023-05-09T15:17:47.375Z,100709.81
2023-05-09T15:20:20.556Z,100722.81
2023-05-09T15:22:48.770Z,100702.69
2023-05-09T15:25:16.563Z,100703.75
2023-05-09T15:27:43.643Z,100693.53
2023-05-09T15:30:11.998Z,100697.13
2023-05-09T15:32:41.630Z,100688.47
2023-05-09T15:35:09.227Z,100682.50
2023-05-09T15:37:36.684Z,100683.53
2023-05-09T15:40:04.369Z,100671.22
2023-05-09T15:42:31.482Z,100662.50
2023-05-09T15:44:58.709Z,100664.22
2023-05-09T15:47:25.940Z,100664.22
2023-05-09T15:49:53.635Z,100658.91
2023-05-09T15:52:20.729Z,100661.84
2023-05-09T15:54:47.820Z,100657.31
2023-05-09T15:57:14.901Z,100653.00
2023-05-09T15:59:42.035Z,100648.97
2023-05-09T16:02:09.115Z,100649.28
2023-05-09T16:04:36.137Z,100638.75
2023-05-09T16:07:03.931Z,100637.03
2023-05-09T16:09:31.065Z,100631.94
2023-05-09T16:11:58.127Z,100632.19
2023-05-09T16:14:25.215Z,100623.69
2023-05-09T16:16:53.796Z,100623.78
2023-05-09T16:19:21.942Z,100624.91
2023-05-09T16:21:49.068Z,100621.47
2023-05-09T16:24:16.389Z,100618.22
2023-05-09T16:26:43.458Z,100612.28
2023-05-09T16:29:11.449Z,100612.56
2023-05-09T16:31:38.716Z,100612.81
2023-05-09T16:34:06.351Z,100608.56
2023-05-09T16:36:33.736Z,100614.03
2023-05-09T16:39:00.783Z,100605.47
2023-05-09T16:41:27.800Z,100610.88
2023-05-09T16:43:54.953Z,100608.38
2023-05-09T16:46:22.459Z,100602.34
2023-05-09T16:48:52.805Z,100594.50
2023-05-09T16:51:19.930Z,100595.47
2023-05-09T16:53:47.037Z,100588.59
2023-05-09T16:56:14.172Z,100593.09
2023-05-09T16:58:42.094Z,100592.31
2023-05-09T17:01:09.928Z,100581.91
2023-05-09T17:03:37.145Z,100578.50
2023-05-09T17:06:04.253Z,100579.47
2023-05-09T17:08:31.718Z,100577.66
2023-05-09T17:10:58.767Z,100569.66
2023-05-09T17:13:25.861Z,100575.97
2023-05-09T17:15:53.014Z,100565.63
2023-05-09T17:18:33.314Z,100565.81
2023-05-09T17:21:04.876Z,100556.34
2023-05-09T17:23:32.128Z,100559.00
2023-05-09T17:25:59.163Z,100562.69
2023-05-09T17:28:26.206Z,100561.09
2023-05-09T17:30:53.412Z,100568.25
2023-05-09T17:33:20.877Z,100570.97
2023-05-09T17:35:49.752Z,100565.84
2023-05-09T17:38:17.605Z,100564.22
2023-05-09T17:40:45.156Z,100569.66
2023-05-09T17:43:13.494Z,100563.66
2023-05-09T17:45:40.498Z,100550.69
2023-05-09T17:48:07.664Z,100553.47
2023-05-09T17:50:34.727Z,100560.59
2023-05-09T17:53:01.857Z,100552.84
2023-05-09T17:55:29.164Z,100555.69
2023-05-09T17:57:56.184Z,100557.56
2023-05-09T18:00:23.359Z,100554.25
2023-05-09T18:02:51.268Z,100556.16
2023-05-09T18:05:18.585Z,100561.56
2023-05-09T18:07:45.633Z,100561.69
2023-05-09T18:10:13.040Z,100565.31
2023-05-09T18:12:40.432Z,100564.53
2023-05-09T18:15:08.325Z,100569.00
2023-05-09T18:17:35.671Z,100565.69
2023-05-09T18:20:03.705Z,100565.84
2023-05-09T18:22:30.812Z,100561.66
2023-05-09T18:24:58.114Z,100566.25
2023-05-09T18:27:25.204Z,100561.19
2023-05-09T18:29:52.478Z,100566.56
2023-05-09T18:32:20.372Z,100563.16
2023-05-09T18:34:48.664Z,100559.78
2023-05-09T18:37:17.140Z,100561.56
2023-05-09T18:39:44.306Z,100563.34
2023-05-09T18:42:13.344Z,100562.59
2023-05-09T18:44:42.657Z,100564.44
2023-05-09T18:47:09.793Z,100567.13
2023-05-09T18:49:43.217Z,100555.06
2023-05-09T18:52:11.715Z,100563.81
2023-05-09T18:54:41.327Z,100568.28
2023-05-09T18:57:09.158Z,100563.13
2023-05-09T18:59:36.298Z,100566.72
2023-05-09T19:02:03.429Z,100567.69
2023-05-09T19:04:30.769Z,100565.09
2023-05-09T19:06:59.928Z,100568.72
2023-05-09T19:09:26.965Z,100570.50
2023-05-09T19:11:54.804Z,100568.81
2023-05-09T19:14:23.312Z,100572.31
2023-05-09T19:16:50.974Z,100570.69
2023-05-09T19:19:19.184Z,100567.31
2023-05-09T19:21:47.157Z,100573.50
2023-05-09T19:24:16.052Z,100568.28
2023-05-09T19:39:50.785Z,100575.41
2023-05-09T19:42:17.914Z,100576.31
2023-05-09T19:44:45.169Z,100572.88
2023-05-09T19:47:13.742Z,100571.19
2023-05-09T19:49:43.443Z,100568.59
2023-05-09T19:52:12.620Z,100572.06
2023-05-09T19:54:41.460Z,100569.47
2023-05-09T19:57:11.704Z,100574.72
2023-05-09T19:59:43.125Z,100571.22
2023-05-09T20:02:11.277Z,100566.91
2023-05-09T20:04:39.398Z,100566.97
2023-05-09T20:07:07.786Z,100567.84
2023-05-09T20:09:35.466Z,100567.03
2023-05-09T20:12:04.345Z,100563.56
2023-05-09T20:14:32.208Z,100570.53
2023-05-09T20:16:59.285Z,100574.03
2023-05-09T20:20:06.335Z,100572.31
2023-05-09T20:22:34.067Z,100568.84
2023-05-09T20:25:01.053Z,100570.56
2023-05-09T20:27:28.048Z,100565.41
2023-05-09T20:29:55.133Z,100568.00
2023-05-09T20:32:22.716Z,100570.59
2023-05-09T20:34:49.777Z,100569.72
2023-05-09T20:37:17.026Z,100569.72
2023-05-09T20:39:44.360Z,100576.66
2023-05-09T20:42:12.076Z,100575.81
2023-05-09T20:44:39.763Z,100574.94
2023-05-09T20:47:06.910Z,100577.56
2023-05-09T20:49:34.063Z,100568.88
2023-05-09T20:52:01.333Z,100571.47
2023-05-09T20:54:29.197Z,100564.53
2023-05-09T20:56:56.182Z,100568.00
2023-05-09T20:59:23.557Z,100568.00
2023-05-09T21:01:52.476Z,100565.41
2023-05-09T21:04:19.789Z,100563.66
2023-05-09T21:06:46.758Z,100566.25
2023-05-09T21:09:13.771Z,100568.84
2023-05-09T21:11:41.570Z,100561.03
2023-05-09T21:14:09.242Z,100556.69
2023-05-09T21:16:36.253Z,100556.66
2023-05-09T21:19:05.311Z,100563.63
2023-05-09T21:21:33.419Z,100561.88
2023-05-09T21:24:03.384Z,100551.47
2023-05-09T21:26:31.134Z,100560.13
2023-05-09T21:28:58.147Z,100556.66
2023-05-09T21:31:25.356Z,100560.97
2023-05-09T21:33:52.583Z,100560.13
2023-05-09T21:36:19.722Z,100555.78
2023-05-09T21:38:46.672Z,100554.00
2023-05-09T21:41:13.707Z,100554.88
2023-05-09T21:43:40.833Z,100555.69
2023-05-09T21:46:07.951Z,100552.22
2023-05-09T21:48:35.186Z,100547.00
2023-05-09T21:51:03.199Z,100553.00
2023-05-09T21:53:30.299Z,100549.53
2023-05-09T21:55:57.279Z,100559.06
2023-05-09T21:58:24.250Z,100559.91
2023-05-09T22:00:51.342Z,100558.09
2023-05-09T22:03:18.456Z,100551.16
2023-05-09T22:05:45.554Z,100555.44
2023-05-09T22:08:12.541Z,100551.94
2023-05-09T22:10:39.700Z,100549.28
2023-05-09T22:13:06.728Z,100549.25
2023-05-09T22:15:33.769Z,100553.59
2023-05-09T22:18:00.821Z,100548.34
2023-05-09T22:20:28.089Z,100550.91
2023-05-09T22:22:55.095Z,100549.16
2023-05-09T22:25:22.236Z,100548.25
2023-05-09T22:27:49.233Z,100547.38
2023-05-09T22:30:16.893Z,100544.75
2023-05-09T22:32:44.367Z,100549.06
2023-05-09T22:35:11.427Z,100551.63
2023-05-09T22:37:38.549Z,100556.81
2023-05-09T22:40:06.774Z,100555.88
2023-05-09T22:42:34.954Z,100557.56
2023-05-09T22:45:02.353Z,100554.03
2023-05-09T22:47:29.495Z,100546.22
2023-05-09T22:49:56.582Z,100549.66
2023-05-09T22:52:23.867Z,100550.50
2023-05-09T22:54:50.944Z,100543.56
2023-05-09T22:57:19.413Z,100545.31
2023-05-09T22:59:46.894Z,100547.06
2023-05-09T23:02:14.083Z,100553.09
2023-05-09T23:04:41.648Z,100546.97
2023-05-09T23:07:08.980Z,100551.31
2023-05-09T23:09:36.165Z,100542.63
2023-05-09T23:12:03.751Z,100548.63
2023-05-09T23:14:30.976Z,100544.28
2023-05-09T23:16:58.455Z,100546.00
2023-05-09T23:19:25.568Z,100542.50
2023-05-09T23:21:53.387Z,100543.38
2023-05-09T23:24:20.595Z,100539.03
2023-05-09T23:26:47.723Z,100536.41
2023-05-09T23:29:15.257Z,100536.34
2023-05-09T23:31:42.488Z,100538.06
2023-05-09T23:34:09.611Z,100540.66
2023-05-09T23:36:36.774Z,100543.22
2023-05-09T23:39:03.967Z,100543.22
2023-05-09T23:41:31.384Z,100541.53
2023-05-09T23:43:59.675Z,100534.56
2023-05-09T23:46:27.504Z,100535.44
2023-05-09T23:48:54.612Z,100542.44
2023-05-09T23:51:22.895Z,100535.59
2023-05-09T23:53:49.975Z,100526.91
2023-05-09T23:56:17.135Z,100532.09
2023-05-09T23:58:44.303Z,100526.03
